createdAt,value
2023-05-05T00:00:09.131Z,14.29
2023-05-05T00:02:36.457Z,14.37
2023-05-05T00:05:04.046Z,14.34
2023-05-05T00:07:30.975Z,14.31
2023-05-05T00:09:57.896Z,14.22
2023-05-05T00:12:24.841Z,14.28
2023-05-05T00:14:51.799Z,14.21
2023-05-05T00:17:19.039Z,14.24
2023-05-05T00:19:46.048Z,14.35
2023-05-05T00:22:15.902Z,14.28
2023-05-05T00:24:42.937Z,14.33
2023-05-05T00:27:10.754Z,14.48
2023-05-05T00:29:37.780Z,14.68
2023-05-05T00:32:04.945Z,14.46
2023-05-05T00:34:32.296Z,14.32
2023-05-05T00:36:59.284Z,14.18
2023-05-05T00:39:26.319Z,14.27
2023-05-05T00:41:53.270Z,14.28
2023-05-05T00:44:40.499Z,14.39
2023-05-05T00:47:09.633Z,14.35
2023-05-05T00:49:37.054Z,14.37
2023-05-05T00:52:05.479Z,14.12
2023-05-05T00:54:36.720Z,14.24
2023-05-05T00:57:04.213Z,14.14
2023-05-05T00:59:33.332Z,14.14
2023-05-05T01:02:00.610Z,14.23
2023-05-05T01:04:28.061Z,14.26
2023-05-05T01:07:14.422Z,14.22
2023-05-05T01:10:20.985Z,13.93
2023-05-05T01:13:16.641Z,13.68
2023-05-05T01:16:02.694Z,13.75
2023-05-05T01:19:03.561Z,13.75
2023-05-05T01:21:55.333Z,13.78
2023-05-05T01:24:34.410Z,13.90
2023-05-05T01:27:34.389Z,13.97
2023-05-05T01:30:29.695Z,13.95
2023-05-05T01:33:06.712Z,14.04
2023-05-05T01:35:41.731Z,13.91
2023-05-05T01:38:17.433Z,13.85
2023-05-05T01:40:50.194Z,13.82
2023-05-05T01:43:21.327Z,13.76
2023-05-05T01:45:49.799Z,13.69
2023-05-05T01:48:19.844Z,13.72
2023-05-05T01:50:48.656Z,13.81
2023-05-05T01:53:17.646Z,13.77
2023-05-05T01:55:46.327Z,13.64
2023-05-05T01:58:16.322Z,13.73
2023-05-05T02:00:44.669Z,13.69
2023-05-05T02:03:14.590Z,13.60
2023-05-05T02:05:43.935Z,13.60
2023-05-05T02:08:12.315Z,13.71
2023-05-05T02:10:41.051Z,13.47
2023-05-05T02:15:38.697Z,13.63
2023-05-05T02:18:07.793Z,13.70
2023-05-05T02:20:38.805Z,13.56
2023-05-05T02:23:08.012Z,13.64
2023-05-05T02:25:46.185Z,13.61
2023-05-05T02:28:33.761Z,13.58
2023-05-05T02:31:02.542Z,13.39
2023-05-05T02:33:33.536Z,13.39
2023-05-05T02:36:12.909Z,13.42
2023-05-05T02:38:43.944Z,13.39
2023-05-05T02:41:17.029Z,13.17
2023-05-05T02:43:46.779Z,13.06
2023-05-05T02:46:13.772Z,13.06
2023-05-05T02:48:40.816Z,12.95
2023-05-05T02:51:07.884Z,13.01
2023-05-05T02:53:35.183Z,12.88
2023-05-05T02:56:41.197Z,12.87
2023-05-05T02:59:41.913Z,12.92
2023-05-05T03:02:19.870Z,12.95
2023-05-05T03:04:58.080Z,12.88
2023-05-05T03:07:55.995Z,12.87
2023-05-05T03:10:31.121Z,12.89
2023-05-05T03:13:02.995Z,12.85
2023-05-05T03:15:45.303Z,13.28
2023-05-05T03:18:15.686Z,13.48
2023-05-05T03:20:43.588Z,13.39
2023-05-05T03:23:13.228Z,13.34
2023-05-05T03:25:44.700Z,13.18
2023-05-05T03:28:11.816Z,13.67
2023-05-05T03:30:39.089Z,14.06
2023-05-05T03:33:06.171Z,14.35
2023-05-05T03:35:33.477Z,14.55
2023-05-05T03:38:00.571Z,14.69
2023-05-05T03:40:40.408Z,14.57
2023-05-05T03:43:10.696Z,13.96
2023-05-05T03:45:37.769Z,13.65
2023-05-05T03:48:05.426Z,13.24
2023-05-05T03:50:32.478Z,13.15
2023-05-05T03:52:59.506Z,13.09
2023-05-05T03:55:26.486Z,13.05
2023-05-05T03:57:53.495Z,13.04
2023-05-05T04:00:20.646Z,13.19
2023-05-05T04:02:47.742Z,13.07
2023-05-05T04:05:14.913Z,13.02
2023-05-05T04:07:41.919Z,13.10
2023-05-05T04:10:09.414Z,13.11
2023-05-05T04:12:36.551Z,13.16
2023-05-05T04:15:03.802Z,15.13
2023-05-05T04:17:30.820Z,15.92
2023-05-05T04:19:57.917Z,16.62
2023-05-05T04:22:24.941Z,16.63
2023-05-05T04:24:52.024Z,16.41
2023-05-05T04:27:22.316Z,16.37
2023-05-05T04:29:49.285Z,15.61
2023-05-05T04:32:16.308Z,14.83
2023-05-05T04:34:43.557Z,14.76
2023-05-05T04:37:10.548Z,14.68
2023-05-05T04:39:38.007Z,14.75
2023-05-05T04:42:05.194Z,14.73
2023-05-05T04:44:32.539Z,14.80
2023-05-05T04:47:01.304Z,15.08
2023-05-05T04:49:31.876Z,15.02
2023-05-05T04:51:58.892Z,15.33
2023-05-05T04:54:26.065Z,15.34
2023-05-05T04:56:53.376Z,15.61
2023-05-05T04:59:20.438Z,15.51
2023-05-05T05:01:47.508Z,15.51
2023-05-05T05:04:18.629Z,15.51
2023-05-05T05:06:46.388Z,16.03
2023-05-05T05:09:13.688Z,15.88
2023-05-05T05:11:41.111Z,15.80
2023-05-05T05:14:11.129Z,15.64
2023-05-05T05:16:38.338Z,15.59
2023-05-05T05:19:05.409Z,15.65
2023-05-05T05:21:32.427Z,15.75
2023-05-05T05:23:59.405Z,15.80
2023-05-05T05:26:26.609Z,15.91
2023-05-05T05:28:53.582Z,16.02
2023-05-05T05:31:20.619Z,16.14
2023-05-05T05:33:47.607Z,16.18
2023-05-05T05:36:14.613Z,16.13
2023-05-05T05:38:41.525Z,16.09
2023-05-05T05:41:08.549Z,15.94
2023-05-05T05:43:35.627Z,15.96
2023-05-05T05:46:02.647Z,15.92
2023-05-05T05:48:29.756Z,15.96
2023-05-05T05:50:57.138Z,16.02
2023-05-05T05:53:24.050Z,16.01
2023-05-05T05:55:51.122Z,16.04
2023-05-05T05:58:18.489Z,15.95
2023-05-05T06:00:45.678Z,15.98
2023-05-05T06:03:12.789Z,16.07
2023-05-05T06:05:40.009Z,16.10
2023-05-05T06:08:07.327Z,16.26
2023-05-05T06:10:34.535Z,16.41
2023-05-05T06:13:01.762Z,16.51
2023-05-05T06:15:28.872Z,16.61
2023-05-05T06:17:55.865Z,16.71
2023-05-05T06:20:23.016Z,16.97
2023-05-05T06:22:50.048Z,17.07
2023-05-05T06:25:17.348Z,17.22
2023-05-05T06:27:44.347Z,17.28
2023-05-05T06:30:12.152Z,17.40
2023-05-05T06:32:39.111Z,17.39
2023-05-05T06:35:07.312Z,17.56
2023-05-05T06:37:34.263Z,17.73
2023-05-05T06:40:01.273Z,17.69
2023-05-05T06:42:28.334Z,17.54
2023-05-05T06:44:55.504Z,17.58
2023-05-05T06:47:22.679Z,17.58
2023-05-05T06:49:49.708Z,17.66
2023-05-05T06:52:16.658Z,17.69
2023-05-05T06:54:44.265Z,17.72
2023-05-05T06:57:11.207Z,17.57
2023-05-05T06:59:38.436Z,17.56
2023-05-05T07:02:06.130Z,17.78
2023-05-05T07:04:33.035Z,17.79
2023-05-05T07:07:00.082Z,17.87
2023-05-05T07:09:27.100Z,17.89
2023-05-05T07:11:54.076Z,18.02
2023-05-05T07:14:23.609Z,18.03
2023-05-05T07:16:51.556Z,18.00
2023-05-05T07:19:18.756Z,17.92
2023-05-05T07:21:47.281Z,17.88
2023-05-05T07:24:14.226Z,17.92
2023-05-05T07:26:41.234Z,17.94
2023-05-05T07:29:08.227Z,17.92
2023-05-05T07:31:36.464Z,17.99
2023-05-05T07:34:03.586Z,18.22
2023-05-05T07:36:30.603Z,18.41
2023-05-05T07:38:57.753Z,18.42
2023-05-05T07:41:24.748Z,18.58
2023-05-05T07:43:51.812Z,18.78
2023-05-05T07:46:18.994Z,18.93
2023-05-05T07:48:45.985Z,19.11
2023-05-05T07:51:13.021Z,19.40
2023-05-05T07:53:41.501Z,19.32
2023-05-05T07:56:09.059Z,19.14
2023-05-05T07:58:36.291Z,19.26
2023-05-05T08:01:05.875Z,19.60
2023-05-05T08:03:33.072Z,19.87
2023-05-05T08:06:11.345Z,20.13
2023-05-05T08:08:38.676Z,20.40
2023-05-05T08:11:08.798Z,20.58
2023-05-05T08:13:35.859Z,20.45
2023-05-05T08:16:03.037Z,20.64
2023-05-05T08:18:30.088Z,20.69
2023-05-05T08:20:57.264Z,21.02
2023-05-05T08:23:24.223Z,21.01
2023-05-05T08:25:51.307Z,21.02
2023-05-05T08:28:18.787Z,21.30
2023-05-05T08:30:45.845Z,21.67
2023-05-05T08:33:12.900Z,21.88
2023-05-05T08:35:39.926Z,22.02
2023-05-05T08:38:06.885Z,22.62
2023-05-05T08:40:35.033Z,22.59
2023-05-05T08:43:02.519Z,22.37
2023-05-05T08:45:30.554Z,22.82
2023-05-05T08:48:01.462Z,23.11
2023-05-05T08:50:29.858Z,22.66
2023-05-05T08:53:16.613Z,22.98
2023-05-05T08:55:53.315Z,22.60
2023-05-05T08:58:21.373Z,23.04
2023-05-05T09:00:48.688Z,22.88
2023-05-05T09:03:17.056Z,22.96
2023-05-05T09:05:44.938Z,23.49
2023-05-05T09:08:12.222Z,23.38
2023-05-05T09:10:43.096Z,23.36
2023-05-05T09:13:10.104Z,23.82
2023-05-05T09:15:39.052Z,23.73
2023-05-05T09:18:12.057Z,23.40
2023-05-05T09:20:40.975Z,23.66
2023-05-05T09:23:16.156Z,23.64
2023-05-05T09:25:46.493Z,24.27
2023-05-05T09:28:18.164Z,23.85
2023-05-05T09:30:52.880Z,23.98
2023-05-05T09:33:37.876Z,24.23
2023-05-05T09:36:05.533Z,23.82
2023-05-05T09:38:32.517Z,23.50
2023-05-05T09:40:59.599Z,24.28
2023-05-05T09:43:26.767Z,24.24
2023-05-05T09:46:07.956Z,24.47
2023-05-05T09:48:35.136Z,25.13
2023-05-05T09:51:02.216Z,24.60
2023-05-05T09:53:40.247Z,24.52
2023-05-05T09:56:08.244Z,24.54
2023-05-05T09:58:35.215Z,24.08
2023-05-05T10:01:02.217Z,24.17
2023-05-05T10:03:31.436Z,24.28
2023-05-05T10:06:01.115Z,24.86
2023-05-05T10:08:33.710Z,24.57
2023-05-05T10:11:06.928Z,24.23
2023-05-05T10:13:38.209Z,24.11
2023-05-05T10:16:09.229Z,24.69
2023-05-05T10:18:39.667Z,24.77
2023-05-05T10:21:07.795Z,24.50
2023-05-05T10:23:43.709Z,24.04
2023-05-05T10:26:14.284Z,24.23
2023-05-05T10:29:01.817Z,24.45
2023-05-05T10:31:47.267Z,24.80
2023-05-05T10:35:03.109Z,24.13
2023-05-05T10:37:31.162Z,24.28
2023-05-05T10:39:59.385Z,24.05
2023-05-05T10:42:27.792Z,24.13
2023-05-05T10:44:54.786Z,24.19
2023-05-05T10:47:24.351Z,24.02
2023-05-05T10:50:21.676Z,24.13
2023-05-05T10:53:13.140Z,23.88
2023-05-05T10:55:52.016Z,23.79
2023-05-05T10:58:51.640Z,23.41
2023-05-05T11:01:36.588Z,23.74
2023-05-05T11:04:23.931Z,23.81
2023-05-05T11:07:11.835Z,24.33
2023-05-05T11:09:56.151Z,24.54
2023-05-05T11:12:23.235Z,24.68
2023-05-05T11:15:28.299Z,24.74
2023-05-05T11:18:05.718Z,24.14
2023-05-05T11:20:37.669Z,23.78
2023-05-05T11:23:04.988Z,24.17
2023-05-05T11:25:36.166Z,23.80
2023-05-05T11:28:22.849Z,23.87
2023-05-05T11:30:58.873Z,24.40
2023-05-05T11:33:28.473Z,24.86
2023-05-05T11:36:08.413Z,25.53
2023-05-05T11:39:15.941Z,24.58
2023-05-05T11:42:10.750Z,24.49
2023-05-05T11:44:38.360Z,24.54
2023-05-05T11:47:05.560Z,24.28
2023-05-05T11:49:39.754Z,24.79
2023-05-05T11:52:12.461Z,24.98
2023-05-05T11:54:47.837Z,24.44
2023-05-05T11:57:17.744Z,24.66
2023-05-05T12:00:02.302Z,23.97
2023-05-05T12:02:30.473Z,24.46
2023-05-05T12:04:59.499Z,24.22
2023-05-05T12:07:31.874Z,24.53
2023-05-05T12:09:59.216Z,24.56
2023-05-05T12:12:40.264Z,24.46
2023-05-05T12:15:09.254Z,24.42
2023-05-05T12:17:39.663Z,23.94
2023-05-05T12:20:08.897Z,23.74
2023-05-05T12:22:36.361Z,23.75
2023-05-05T12:25:08.290Z,23.89
2023-05-05T12:27:35.628Z,23.60
2023-05-05T12:30:17.910Z,23.65
2023-05-05T12:32:46.446Z,23.37
2023-05-05T12:35:14.069Z,23.57
2023-05-05T12:37:41.651Z,23.90
2023-05-05T12:40:48.233Z,24.09
2023-05-05T12:43:34.865Z,24.15
2023-05-05T12:46:11.154Z,24.15
2023-05-05T12:48:40.644Z,24.61
2023-05-05T12:51:18.756Z,24.65
2023-05-05T12:54:06.728Z,24.60
2023-05-05T12:56:35.849Z,24.55
2023-05-05T12:59:10.824Z,25.17
2023-05-05T13:01:50.787Z,25.71
2023-05-05T13:04:19.081Z,25.87
2023-05-05T13:06:54.028Z,25.75
2023-05-05T13:09:29.760Z,25.84
2023-05-05T13:12:01.860Z,25.88
2023-05-05T13:14:30.650Z,25.78
2023-05-05T13:16:58.223Z,25.30
2023-05-05T13:19:25.239Z,25.30
2023-05-05T13:21:56.655Z,25.44
2023-05-05T13:24:37.988Z,25.19
2023-05-05T13:27:09.838Z,25.19
2023-05-05T13:29:36.931Z,25.11
2023-05-05T13:32:04.020Z,25.16
2023-05-05T13:34:31.043Z,24.86
2023-05-05T13:36:58.142Z,24.94
2023-05-05T13:39:25.218Z,24.94
2023-05-05T13:41:52.267Z,24.88
2023-05-05T13:44:19.295Z,24.80
2023-05-05T13:46:46.477Z,24.88
2023-05-05T13:49:13.971Z,24.97
2023-05-05T13:51:41.100Z,25.04
2023-05-05T13:54:08.185Z,24.82
2023-05-05T13:56:35.368Z,24.82
2023-05-05T13:59:02.573Z,25.49
2023-05-05T14:01:30.332Z,25.39
2023-05-05T14:03:58.091Z,25.07
2023-05-05T14:06:26.091Z,24.87
2023-05-05T14:08:53.546Z,24.48
2023-05-05T14:11:20.886Z,24.45
2023-05-05T14:13:48.218Z,24.39
2023-05-05T14:16:15.530Z,24.12
2023-05-05T14:18:42.712Z,23.90
2023-05-05T14:21:09.910Z,24.06
2023-05-05T14:23:37.087Z,23.68
2023-05-05T14:26:04.210Z,23.57
2023-05-05T14:28:31.237Z,23.25
2023-05-05T14:30:58.349Z,23.34
2023-05-05T14:33:25.583Z,23.35
2023-05-05T14:35:53.093Z,23.24
2023-05-05T14:38:20.212Z,22.95
2023-05-05T14:40:47.297Z,22.81
2023-05-05T14:43:14.440Z,22.62
2023-05-05T14:45:41.547Z,22.67
2023-05-05T14:48:08.706Z,22.59
2023-05-05T14:50:35.999Z,22.52
2023-05-05T14:53:03.342Z,22.46
2023-05-05T14:55:30.391Z,22.32
2023-05-05T14:57:57.384Z,22.36
2023-05-05T15:00:26.603Z,22.28
2023-05-05T15:02:53.700Z,22.24
2023-05-05T15:05:20.845Z,22.38
2023-05-05T15:07:48.014Z,22.20
2023-05-05T15:10:15.143Z,22.09
2023-05-05T15:12:42.978Z,22.04
2023-05-05T15:15:10.750Z,22.19
2023-05-05T15:17:38.998Z,21.95
2023-05-05T15:20:07.096Z,21.99
2023-05-05T15:22:34.501Z,22.06
2023-05-05T15:25:01.702Z,22.16
2023-05-05T15:27:30.048Z,21.76
2023-05-05T15:29:57.080Z,21.53
2023-05-05T15:32:24.194Z,21.50
2023-05-05T15:34:51.252Z,21.16
2023-05-05T15:37:18.233Z,20.89
2023-05-05T15:39:45.271Z,20.75
2023-05-05T15:42:12.620Z,20.38
2023-05-05T15:44:40.197Z,18.45
2023-05-05T15:47:08.002Z,18.06
2023-05-05T15:49:35.990Z,18.02
2023-05-05T15:52:03.517Z,17.87
2023-05-05T15:54:30.963Z,17.86
2023-05-05T15:56:58.608Z,17.80
2023-05-05T15:59:26.487Z,17.71
2023-05-05T16:01:53.602Z,17.84
2023-05-05T16:04:21.090Z,17.72
2023-05-05T16:06:48.160Z,17.86
2023-05-05T16:09:15.130Z,17.94
2023-05-05T16:11:42.318Z,17.99
2023-05-05T16:14:09.498Z,18.00
2023-05-05T16:16:36.478Z,17.78
2023-05-05T16:19:03.662Z,17.88
2023-05-05T16:21:31.020Z,17.71
2023-05-05T16:23:58.050Z,17.79
2023-05-05T16:26:25.050Z,17.67
2023-05-05T16:28:52.627Z,17.55
2023-05-05T16:31:19.658Z,17.58
2023-05-05T16:33:46.770Z,17.58
2023-05-05T16:36:14.291Z,17.67
2023-05-05T16:38:41.641Z,17.68
2023-05-05T16:41:08.659Z,17.67
2023-05-05T16:43:38.788Z,17.67
2023-05-05T16:46:06.868Z,17.82
2023-05-05T16:48:34.036Z,17.67
2023-05-05T16:51:20.244Z,17.67
2023-05-05T16:53:49.021Z,17.70
2023-05-05T16:56:16.440Z,17.62
2023-05-05T16:58:43.418Z,17.71
2023-05-05T17:01:10.850Z,17.70
2023-05-05T17:03:39.115Z,17.75
2023-05-05T17:06:06.678Z,17.67
2023-05-05T17:08:34.032Z,17.69
2023-05-05T17:11:01.466Z,17.63
2023-05-05T17:13:28.902Z,17.80
2023-05-05T17:15:57.435Z,17.90
2023-05-05T17:18:25.924Z,17.78
2023-05-05T17:20:53.086Z,17.75
2023-05-05T17:23:37.459Z,17.56
2023-05-05T17:26:05.339Z,17.74
2023-05-05T17:28:32.777Z,17.71
2023-05-05T17:31:01.534Z,17.73
2023-05-05T17:33:44.786Z,17.84
2023-05-05T17:39:11.550Z,18.00
2023-05-05T17:41:38.943Z,17.87
2023-05-05T17:44:06.027Z,17.81
2023-05-05T17:46:33.004Z,17.87
2023-05-05T17:49:00.633Z,17.62
2023-05-05T17:51:28.313Z,17.56
2023-05-05T17:53:55.468Z,17.63
2023-05-05T17:56:22.466Z,17.64
2023-05-05T17:58:49.914Z,17.63
2023-05-05T18:01:24.979Z,17.62
2023-05-05T18:03:52.776Z,17.72
2023-05-05T18:06:19.875Z,17.68
2023-05-05T18:08:46.914Z,17.58
2023-05-05T18:11:13.971Z,17.53
2023-05-05T18:13:41.411Z,17.45
2023-05-05T18:16:09.054Z,17.44
2023-05-05T18:18:39.221Z,17.42
2023-05-05T18:21:06.828Z,17.44
2023-05-05T18:23:34.340Z,17.43
2023-05-05T18:26:01.771Z,17.50
2023-05-05T18:28:29.161Z,17.54
2023-05-05T18:30:56.864Z,17.47
2023-05-05T18:33:24.257Z,17.40
2023-05-05T18:35:52.055Z,17.46
2023-05-05T18:38:19.712Z,17.32
2023-05-05T18:40:47.319Z,17.32
2023-05-05T18:43:14.922Z,17.32
2023-05-05T18:45:42.463Z,17.21
2023-05-05T18:48:09.957Z,17.13
2023-05-05T18:50:37.722Z,17.11
2023-05-05T18:53:05.155Z,17.08
2023-05-05T18:55:32.580Z,17.00
2023-05-05T18:57:59.942Z,17.02
2023-05-05T19:00:27.342Z,17.00
2023-05-05T19:02:54.788Z,16.98
2023-05-05T19:05:22.385Z,16.97
2023-05-05T19:07:49.736Z,16.99
2023-05-05T19:10:17.399Z,16.88
2023-05-05T19:12:44.671Z,16.82
2023-05-05T19:15:13.301Z,16.82
2023-05-05T19:17:40.422Z,16.76
2023-05-05T19:20:08.913Z,16.77
2023-05-05T19:22:35.945Z,16.70
2023-05-05T19:25:03.851Z,16.64
2023-05-05T19:27:33.913Z,16.67
2023-05-05T19:30:01.408Z,16.58
2023-05-05T19:32:28.536Z,16.47
2023-05-05T19:34:55.935Z,16.42
2023-05-05T19:37:26.539Z,16.27
2023-05-05T19:39:53.895Z,16.32
2023-05-05T19:42:23.660Z,16.31
2023-05-05T19:44:51.157Z,16.28
2023-05-05T19:47:18.294Z,16.19
2023-05-05T19:49:45.791Z,16.16
2023-05-05T19:52:13.301Z,16.15
2023-05-05T19:54:40.382Z,16.16
2023-05-05T19:57:07.587Z,16.14
2023-05-05T19:59:35.101Z,16.08
2023-05-05T20:02:02.649Z,16.11
2023-05-05T20:04:30.050Z,16.07
2023-05-05T20:06:57.441Z,16.07
2023-05-05T20:09:24.425Z,16.02
2023-05-05T20:11:51.876Z,15.94
2023-05-05T20:14:19.376Z,15.92
2023-05-05T20:16:46.523Z,15.88
2023-05-05T20:19:14.055Z,15.82
2023-05-05T20:21:41.272Z,15.78
2023-05-05T20:24:09.517Z,15.70
2023-05-05T20:26:36.922Z,15.70
2023-05-05T20:29:04.420Z,15.70
2023-05-05T20:31:31.833Z,15.64
2023-05-05T20:33:59.381Z,15.60
2023-05-05T20:36:27.051Z,15.56
2023-05-05T20:38:54.494Z,15.53
2023-05-05T20:41:22.214Z,15.53
2023-05-05T20:43:49.630Z,15.51
2023-05-05T20:46:17.235Z,15.50
2023-05-05T20:48:44.775Z,15.55
2023-05-05T20:51:11.955Z,15.50
2023-05-05T20:53:39.321Z,15.43
2023-05-05T20:56:08.628Z,15.46
2023-05-05T20:58:36.156Z,15.45
2023-05-05T21:01:03.589Z,15.43
2023-05-05T21:03:30.629Z,15.45
2023-05-05T21:05:58.008Z,15.42
2023-05-05T21:08:25.410Z,15.32
2023-05-05T21:10:52.785Z,15.24
2023-05-05T21:13:20.233Z,15.33
2023-05-05T21:15:50.383Z,15.25
2023-05-05T21:18:18.029Z,15.24
2023-05-05T21:20:45.413Z,15.27
2023-05-05T21:23:12.808Z,15.26
2023-05-05T21:25:40.060Z,15.22
2023-05-05T21:28:07.487Z,15.20
2023-05-05T21:30:34.471Z,15.17
2023-05-05T21:33:01.971Z,15.07
2023-05-05T21:35:29.011Z,15.02
2023-05-05T21:37:56.393Z,14.90
2023-05-05T21:40:23.404Z,14.85
2023-05-05T21:42:50.408Z,14.88
2023-05-05T21:45:17.801Z,14.87
2023-05-05T21:47:44.867Z,14.79
2023-05-05T21:50:12.686Z,14.74
2023-05-05T21:52:40.273Z,14.64
2023-05-05T21:55:08.059Z,14.48
2023-05-05T21:57:35.529Z,14.37
2023-05-05T22:00:05.633Z,14.28
2023-05-05T22:02:33.609Z,14.22
2023-05-05T22:05:01.005Z,14.25
2023-05-05T22:07:28.378Z,14.10
2023-05-05T22:09:55.757Z,14.14
2023-05-05T22:12:23.147Z,14.17
2023-05-05T22:14:50.560Z,14.06
2023-05-05T22:17:17.959Z,14.05
2023-05-05T22:19:45.334Z,13.91
2023-05-05T22:22:12.799Z,13.93
2023-05-05T22:24:40.174Z,13.84
2023-05-05T22:27:07.138Z,13.87
2023-05-05T22:29:34.522Z,13.91
2023-05-05T22:32:01.924Z,13.86
2023-05-05T22:34:28.954Z,13.79
2023-05-05T22:36:57.220Z,13.68
2023-05-05T22:39:27.416Z,13.61
2023-05-05T22:41:54.764Z,13.67
2023-05-05T22:44:22.123Z,13.61
2023-05-05T22:46:49.616Z,13.65
2023-05-05T22:49:17.150Z,13.63
2023-05-05T22:51:44.601Z,13.62
2023-05-05T22:54:12.003Z,13.59
2023-05-05T22:56:39.676Z,13.58
2023-05-05T22:59:07.224Z,13.51
2023-05-05T23:01:34.868Z,13.55
2023-05-05T23:04:02.371Z,13.55
2023-05-05T23:06:29.928Z,13.52
2023-05-05T23:08:57.314Z,13.52
2023-05-05T23:11:25.689Z,13.48
2023-05-05T23:13:53.440Z,13.44
2023-05-05T23:16:20.902Z,13.37
2023-05-05T23:18:48.325Z,13.29
2023-05-05T23:21:15.761Z,13.24
2023-05-05T23:23:43.210Z,13.27
2023-05-05T23:26:10.777Z,13.29
2023-05-05T23:28:38.175Z,13.30
2023-05-05T23:31:05.755Z,13.29
2023-05-05T23:33:33.263Z,13.24
2023-05-05T23:36:00.708Z,13.19
2023-05-05T23:38:28.158Z,13.20
2023-05-05T23:40:55.703Z,13.18
2023-05-05T23:43:23.074Z,13.12
2023-05-05T23:45:50.548Z,13.11
2023-05-05T23:48:18.027Z,13.12
2023-05-05T23:50:45.367Z,13.08
2023-05-05T23:53:12.789Z,13.01
2023-05-05T23:55:40.243Z,13.00
2023-05-05T23:58:07.647Z,13.03
